ADDS METAR Data INFO
IDs: Format: Raw Decoded Include TAF

Data at: 0300 UTC 21 Jan 2018

KELZ 210256Z AUTO 27011KT 10SM CLR 03/M03 A3001 RMK AO2 SLP182 T00281033 53012 $
KELZ 210156Z AUTO 26008KT 10SM CLR 03/M03 A3000 RMK AO2 SLP176 T00331033 $
KELZ 210056Z AUTO 26007KT 10SM CLR 03/M03 A2999 RMK AO2 SLP175 T00331033 $
KELZ 202356Z AUTO 25011KT 10SM CLR 04/M03 A2998 RMK AO2 SLP168 T00441033 10067 20044 51026 $
KELZ 202256Z AUTO 27014G21KT 10SM CLR 05/M03 A2997 RMK AO2 SLP165 T00501028 $
KELZ 202156Z AUTO 26011KT 10SM CLR 06/M03 A2993 RMK AO2 SLP153 T00561028 $
KELZ 202056Z AUTO 27011G19KT 10SM CLR 07/M03 A2990 RMK AO2 SLP138 T00671028 53010 $
KELZ 201956Z AUTO 28015G22KT 10SM CLR 06/M03 A2989 RMK AO2 SLP136 T00611028 $
KELZ 201856Z AUTO 27010G22KT 10SM CLR 06/M03 A2987 RMK AO2 SLP130 T00611033 $
KELZ 201756Z AUTO 25011G20KT 10SM CLR 06/M03 A2986 RMK AO2 SLP128 T00561033 10056 20000 58003 $
KELZ 201656Z AUTO 26012G18KT 10SM CLR 04/M04 A2988 RMK AO2 SLP134 T00441039 $
KELZ 201556Z AUTO 23009G20KT 10SM CLR 03/M04 A2989 RMK AO2 SLP138 T00331044 $
KELZ 201456Z AUTO 24009G18KT 10SM CLR 02/M04 A2987 RMK AO2 PK WND 26026/1358 SLP134 T00171044 $
KELZ 201356Z AUTO 24015G28KT 10SM CLR 01/M05 A2983 RMK AO2 PK WND 23028/1351 SLP122 T00111050 $
KELZ 201256Z AUTO 25012G21KT 10SM CLR 00/M06 A2982 RMK AO2 SLP118 T00001056 $
KELZ 201156Z AUTO 25011G22KT 210V280 10SM CLR 01/M06 A2980 RMK AO2 PK WND 23026/1134 SLP111 T00061061 10011 20006 53013 $
KELZ 201056Z AUTO 25016G27KT 10SM CLR 01/M06 A2978 RMK AO2 PK WND 24028/1039 SLP103 T00061061 $
KELZ 200956Z AUTO 24008G18KT 10SM CLR 01/M07 A2977 RMK AO2 PK WND 24026/0931 SLP097 T00111067 $
KELZ 200856Z AUTO 23013G21KT 10SM CLR 01/M07 A2976 RMK AO2 PK WND 24026/0801 SLP095 T00061067 50001 $
KELZ 200756Z AUTO 23017G27KT 10SM CLR 01/M07 A2976 RMK AO2 PK WND 21029/0735 SLP096 T00111067 $
KELZ 200656Z AUTO 23012G23KT 10SM CLR 01/M07 A2976 RMK AO2 SLP096 T00061072 $
KELZ 200556Z AUTO 23015G24KT 10SM CLR 01/M08 A2976 RMK AO2 PK WND 24026/0512 SLP097 T00061078 10011 20006 58017 $
KELZ 200456Z AUTO 24013G29KT 10SM CLR 01/M08 A2979 RMK AO2 PK WND 22029/0418 SLP108 T00111078 400331078 $
KELZ 200356Z AUTO 24015G23KT 10SM CLR 01/M08 A2980 RMK AO2 SLP113 T00111078 $
KELZ 200256Z AUTO 24013G21KT 10SM CLR 01/M08 A2981 RMK AO2 PK WND 22028/0159 SLP121 T00061078 58011 $
KELZ 200156Z AUTO 24013G24KT 10SM CLR 01/M08 A2983 RMK AO2 SLP128 T00111078 $
KELZ 200056Z AUTO 24015G22KT 10SM CLR 01/M08 A2983 RMK AO2 PK WND 23027/0029 SLP128 T00111078 $
KELZ 192356Z AUTO 23015G20KT 10SM CLR 01/M07 A2985 RMK AO2 SLP133 T00111072 10033 20006 58006 $
KELZ 192256Z AUTO 23011G18KT 10SM CLR 01/M07 A2985 RMK AO2 SLP133 T00111072 $
KELZ 192156Z AUTO 23008G16KT 10SM CLR 02/M07 A2987 RMK AO2 SLP141 T00171072 $
KELZ 192056Z AUTO 23009G17KT 10SM CLR 03/M07 A2987 RMK AO2 SLP138 T00331072 55000 $
KELZ 191956Z AUTO 23009G17KT 10SM CLR 03/M07 A2986 RMK AO2 SLP135 T00281072 $
KELZ 191856Z AUTO 25010G18KT 210V290 10SM CLR 02/M08 A2985 RMK AO2 SLP134 T00221078 $
KELZ 191756Z AUTO 23010KT 10SM CLR 01/M08 A2987 RMK AO2 SLP140 T00061083 10006 21078 58017 $
KELZ 191656Z AUTO 23012G17KT 10SM CLR M02/M09 A2989 RMK AO2 SLP152 T10171094 $
KELZ 191556Z AUTO 25010G16KT 210V270 10SM CLR M04/M11 A2992 RMK AO2 SLP163 T10391106 $